sensor_id;sensor_type;location;lat;lon;timestamp;pressure;altitude;pressure_sealevel;temperature;humidity
56582;BME280;42463;52.214;21.238;2023-02-28T00:01:56;101858.64;;;-1.02;57.35
56582;BME280;42463;52.214;21.238;2023-02-28T00:04:22;101861.89;;;-1.03;57.38
56582;BME280;42463;52.214;21.238;2023-02-28T00:06:46;101858.86;;;-1.04;57.26
56582;BME280;42463;52.214;21.238;2023-02-28T00:09:10;101860.69;;;-1.11;57.38
56582;BME280;42463;52.214;21.238;2023-02-28T00:11:35;101864.46;;;-1.17;57.62
56582;BME280;42463;52.214;21.238;2023-02-28T00:14:01;101860.84;;;-1.27;57.85
56582;BME280;42463;52.214;21.238;2023-02-28T00:16:25;101865.63;;;-1.25;57.98
56582;BME280;42463;52.214;21.238;2023-02-28T00:18:51;101868.73;;;-1.26;57.95
56582;BME280;42463;52.214;21.238;2023-02-28T00:21:16;101869.65;;;-1.27;57.93
56582;BME280;42463;52.214;21.238;2023-02-28T00:23:42;101874.79;;;-1.26;58.21
56582;BME280;42463;52.214;21.238;2023-02-28T00:26:07;101874.34;;;-1.32;58.39
56582;BME280;42463;52.214;21.238;2023-02-28T00:28:32;101874.04;;;-1.34;58.36
56582;BME280;42463;52.214;21.238;2023-02-28T00:30:56;101877.65;;;-1.39;58.49
56582;BME280;42463;52.214;21.238;2023-02-28T00:33:23;101878.58;;;-1.43;58.52
56582;BME280;42463;52.214;21.238;2023-02-28T00:35:47;101875.13;;;-1.48;58.33
56582;BME280;42463;52.214;21.238;2023-02-28T00:38:12;101879.51;;;-1.54;58.41
56582;BME280;42463;52.214;21.238;2023-02-28T00:40:36;101881.83;;;-1.61;58.50
56582;BME280;42463;52.214;21.238;2023-02-28T00:43:01;101882.13;;;-1.66;58.55
56582;BME280;42463;52.214;21.238;2023-02-28T00:45:26;101883.16;;;-1.68;58.48
56582;BME280;42463;52.214;21.238;2023-02-28T00:47:51;101876.75;;;-1.66;58.54
56582;BME280;42463;52.214;21.238;2023-02-28T00:50:16;101877.37;;;-1.64;58.83
56582;BME280;42463;52.214;21.238;2023-02-28T00:52:41;101877.81;;;-1.66;58.74
56582;BME280;42463;52.214;21.238;2023-02-28T00:55:06;101876.10;;;-1.68;58.83
56582;BME280;42463;52.214;21.238;2023-02-28T00:57:30;101875.52;;;-1.71;58.98
56582;BME280;42463;52.214;21.238;2023-02-28T00:59:55;101875.98;;;-1.75;59.33
56582;BME280;42463;52.214;21.238;2023-02-28T01:02:20;101874.78;;;-1.79;59.15
56582;BME280;42463;52.214;21.238;2023-02-28T01:04:45;101873.08;;;-1.81;58.99
56582;BME280;42463;52.214;21.238;2023-02-28T01:07:10;101868.67;;;-1.80;59.62
56582;BME280;42463;52.214;21.238;2023-02-28T01:09:35;101871.34;;;-1.74;59.27
56582;BME280;42463;52.214;21.238;2023-02-28T01:11:59;101871.09;;;-1.73;59.13
56582;BME280;42463;52.214;21.238;2023-02-28T01:14:24;101870.02;;;-1.77;59.28
56582;BME280;42463;52.214;21.238;2023-02-28T01:16:48;101872.01;;;-1.79;59.21
56582;BME280;42463;52.214;21.238;2023-02-28T01:19:15;101869.85;;;-1.79;59.37
56582;BME280;42463;52.214;21.238;2023-02-28T01:21:40;101871.36;;;-1.78;59.46
56582;BME280;42463;52.214;21.238;2023-02-28T01:24:06;101870.80;;;-1.78;59.37
56582;BME280;42463;52.214;21.238;2023-02-28T01:26:32;101871.34;;;-1.82;59.31
56582;BME280;42463;52.214;21.238;2023-02-28T01:28:57;101869.63;;;-1.86;59.54
56582;BME280;42463;52.214;21.238;2023-02-28T01:31:23;101868.30;;;-1.87;59.77
56582;BME280;42463;52.214;21.238;2023-02-28T01:33:48;101875.45;;;-1.86;59.64
56582;BME280;42463;52.214;21.238;2023-02-28T01:36:15;101876.29;;;-1.87;59.68
56582;BME280;42463;52.214;21.238;2023-02-28T01:38:40;101878.47;;;-1.88;59.85
56582;BME280;42463;52.214;21.238;2023-02-28T01:41:06;101874.29;;;-1.93;59.57
56582;BME280;42463;52.214;21.238;2023-02-28T01:43:51;101879.55;;;-1.92;59.54
56582;BME280;42463;52.214;21.238;2023-02-28T01:46:17;101882.49;;;-1.93;59.56
56582;BME280;42463;52.214;21.238;2023-02-28T01:48:43;101882.68;;;-1.94;59.65
56582;BME280;42463;52.214;21.238;2023-02-28T01:51:13;101883.66;;;-1.95;59.63
56582;BME280;42463;52.214;21.238;2023-02-28T01:54:07;101881.27;;;-1.98;59.67
56582;BME280;42463;52.214;21.238;2023-02-28T01:56:37;101881.63;;;-2.02;59.72
56582;BME280;42463;52.214;21.238;2023-02-28T01:59:02;101883.01;;;-2.07;59.72
56582;BME280;42463;52.214;21.238;2023-02-28T02:01:47;101885.94;;;-2.13;59.78
56582;BME280;42463;52.214;21.238;2023-02-28T02:04:12;101883.00;;;-2.13;60.14
56582;BME280;42463;52.214;21.238;2023-02-28T02:06:42;101878.19;;;-2.15;60.05
56582;BME280;42463;52.214;21.238;2023-02-28T02:09:07;101879.32;;;-2.18;60.01
56582;BME280;42463;52.214;21.238;2023-02-28T02:11:32;101877.83;;;-2.23;60.16
56582;BME280;42463;52.214;21.238;2023-02-28T02:14:24;101870.85;;;-2.26;60.41
56582;BME280;42463;52.214;21.238;2023-02-28T02:17:08;101873.38;;;-2.22;60.63
56582;BME280;42463;52.214;21.238;2023-02-28T02:19:51;101875.70;;;-2.21;60.46
56582;BME280;42463;52.214;21.238;2023-02-28T02:22:37;101878.95;;;-2.19;60.23
56582;BME280;42463;52.214;21.238;2023-02-28T02:25:24;101879.98;;;-2.23;60.23
56582;BME280;42463;52.214;21.238;2023-02-28T02:28:02;101882.96;;;-2.27;60.46
56582;BME280;42463;52.214;21.238;2023-02-28T02:30:50;101882.73;;;-2.30;60.16
56582;BME280;42463;52.214;21.238;2023-02-28T02:33:37;101875.96;;;-2.36;60.57
56582;BME280;42463;52.214;21.238;2023-02-28T02:36:13;101880.95;;;-2.42;60.46
56582;BME280;42463;52.214;21.238;2023-02-28T02:38:44;101880.31;;;-2.45;60.55
56582;BME280;42463;52.214;21.238;2023-02-28T02:41:16;101885.10;;;-2.47;60.68
56582;BME280;42463;52.214;21.238;2023-02-28T02:43:45;101887.61;;;-2.47;60.76
56582;BME280;42463;52.214;21.238;2023-02-28T02:46:16;101891.41;;;-2.48;60.73
56582;BME280;42463;52.214;21.238;2023-02-28T02:48:45;101890.56;;;-2.49;60.87
56582;BME280;42463;52.214;21.238;2023-02-28T02:51:13;101894.16;;;-2.47;60.84
56582;BME280;42463;52.214;21.238;2023-02-28T02:53:44;101892.23;;;-2.47;60.61
56582;BME280;42463;52.214;21.238;2023-02-28T02:56:13;101894.40;;;-2.50;60.83
56582;BME280;42463;52.214;21.238;2023-02-28T02:58:41;101895.39;;;-2.53;60.65
56582;BME280;42463;52.214;21.238;2023-02-28T03:01:08;101899.53;;;-2.59;60.72
56582;BME280;42463;52.214;21.238;2023-02-28T03:03:35;101895.42;;;-2.64;60.96
56582;BME280;42463;52.214;21.238;2023-02-28T03:06:01;101897.34;;;-2.62;61.20
56582;BME280;42463;52.214;21.238;2023-02-28T03:08:28;101896.06;;;-2.59;61.09
56582;BME280;42463;52.214;21.238;2023-02-28T03:10:58;101898.37;;;-2.57;61.08
56582;BME280;42463;52.214;21.238;2023-02-28T03:16:31;101895.80;;;-2.60;60.96
56582;BME280;42463;52.214;21.238;2023-02-28T03:18:57;101901.52;;;-2.61;61.05
56582;BME280;42463;52.214;21.238;2023-02-28T03:21:34;101898.63;;;-2.60;61.30
56582;BME280;42463;52.214;21.238;2023-02-28T03:24:05;101897.34;;;-2.60;61.12
56582;BME280;42463;52.214;21.238;2023-02-28T03:26:32;101895.93;;;-2.64;60.92
56582;BME280;42463;52.214;21.238;2023-02-28T03:29:04;101897.89;;;-2.68;60.86
56582;BME280;42463;52.214;21.238;2023-02-28T03:31:32;101901.57;;;-2.72;60.92
56582;BME280;42463;52.214;21.238;2023-02-28T03:34:03;101898.73;;;-2.73;61.05
56582;BME280;42463;52.214;21.238;2023-02-28T03:36:32;101903.36;;;-2.76;61.00
56582;BME280;42463;52.214;21.238;2023-02-28T03:39:03;101904.23;;;-2.78;61.24
56582;BME280;42463;52.214;21.238;2023-02-28T03:41:32;101904.35;;;-2.79;61.29
56582;BME280;42463;52.214;21.238;2023-02-28T03:44:05;101907.42;;;-2.80;61.25
56582;BME280;42463;52.214;21.238;2023-02-28T03:46:34;101905.34;;;-2.82;61.16
56582;BME280;42463;52.214;21.238;2023-02-28T03:49:03;101906.75;;;-2.84;61.50
56582;BME280;42463;52.214;21.238;2023-02-28T03:51:33;101910.08;;;-2.84;61.55
56582;BME280;42463;52.214;21.238;2023-02-28T03:54:02;101912.91;;;-2.82;61.63
56582;BME280;42463;52.214;21.238;2023-02-28T03:56:32;101910.05;;;-2.79;61.59
56582;BME280;42463;52.214;21.238;2023-02-28T03:59:02;101910.55;;;-2.81;61.50
56582;BME280;42463;52.214;21.238;2023-02-28T04:01:34;101914.79;;;-2.77;61.55
56582;BME280;42463;52.214;21.238;2023-02-28T04:04:00;101911.33;;;-2.76;61.59
56582;BME280;42463;52.214;21.238;2023-02-28T04:06:25;101912.62;;;-2.74;61.43
56582;BME280;42463;52.214;21.238;2023-02-28T04:08:50;101912.77;;;-2.72;61.41
56582;BME280;42463;52.214;21.238;2023-02-28T04:11:22;101910.73;;;-2.73;61.21
56582;BME280;42463;52.214;21.238;2023-02-28T04:13:48;101902.92;;;-2.79;61.24
56582;BME280;42463;52.214;21.238;2023-02-28T04:16:14;101905.34;;;-2.80;61.03
56582;BME280;42463;52.214;21.238;2023-02-28T04:18:40;101909.14;;;-2.83;61.15
56582;BME280;42463;52.214;21.238;2023-02-28T04:21:07;101909.00;;;-2.85;61.31
56582;BME280;42463;52.214;21.238;2023-02-28T04:23:33;101913.88;;;-2.89;61.36
56582;BME280;42463;52.214;21.238;2023-02-28T04:25:57;101910.95;;;-2.92;61.41
56582;BME280;42463;52.214;21.238;2023-02-28T04:28:22;101914.43;;;-2.94;61.33
56582;BME280;42463;52.214;21.238;2023-02-28T04:30:47;101913.55;;;-2.96;61.30
56582;BME280;42463;52.214;21.238;2023-02-28T04:33:12;101917.77;;;-3.00;61.43
56582;BME280;42463;52.214;21.238;2023-02-28T04:35:36;101918.92;;;-3.03;61.41
56582;BME280;42463;52.214;21.238;2023-02-28T04:38:01;101915.35;;;-3.04;61.43
56582;BME280;42463;52.214;21.238;2023-02-28T04:40:25;101913.95;;;-3.07;61.50
56582;BME280;42463;52.214;21.238;2023-02-28T04:42:50;101914.30;;;-3.11;61.74
56582;BME280;42463;52.214;21.238;2023-02-28T04:45:15;101914.77;;;-3.14;61.71
56582;BME280;42463;52.214;21.238;2023-02-28T04:47:40;101917.42;;;-3.16;61.69
56582;BME280;42463;52.214;21.238;2023-02-28T04:50:06;101915.23;;;-3.16;61.94
56582;BME280;42463;52.214;21.238;2023-02-28T04:52:31;101917.77;;;-3.16;61.80
56582;BME280;42463;52.214;21.238;2023-02-28T04:54:56;101921.20;;;-3.15;61.70
56582;BME280;42463;52.214;21.238;2023-02-28T04:57:21;101917.52;;;-3.11;62.02
56582;BME280;42463;52.214;21.238;2023-02-28T04:59:46;101919.19;;;-3.06;61.76
56582;BME280;42463;52.214;21.238;2023-02-28T05:02:10;101917.54;;;-3.05;61.61
56582;BME280;42463;52.214;21.238;2023-02-28T05:04:35;101922.98;;;-3.06;61.63
56582;BME280;42463;52.214;21.238;2023-02-28T05:07:00;101925.73;;;-3.06;61.68
56582;BME280;42463;52.214;21.238;2023-02-28T05:09:26;101927.20;;;-3.04;61.73
56582;BME280;42463;52.214;21.238;2023-02-28T05:11:51;101927.96;;;-3.07;61.37
56582;BME280;42463;52.214;21.238;2023-02-28T05:14:15;101930.89;;;-3.10;61.37
56582;BME280;42463;52.214;21.238;2023-02-28T05:16:40;101937.95;;;-3.14;61.31
56582;BME280;42463;52.214;21.238;2023-02-28T05:19:04;101942.39;;;-3.19;61.43
56582;BME280;42463;52.214;21.238;2023-02-28T05:21:31;101947.76;;;-3.22;61.45
56582;BME280;42463;52.214;21.238;2023-02-28T05:23:56;101953.24;;;-3.24;61.74
56582;BME280;42463;52.214;21.238;2023-02-28T05:26:21;101953.30;;;-3.25;61.67
56582;BME280;42463;52.214;21.238;2023-02-28T05:28:45;101957.36;;;-3.23;61.94
56582;BME280;42463;52.214;21.238;2023-02-28T05:31:11;101960.35;;;-3.18;62.13
56582;BME280;42463;52.214;21.238;2023-02-28T05:33:35;101964.19;;;-3.17;61.70
56582;BME280;42463;52.214;21.238;2023-02-28T05:36:00;101960.31;;;-3.17;61.85
56582;BME280;42463;52.214;21.238;2023-02-28T05:38:24;101965.16;;;-3.18;61.69
56582;BME280;42463;52.214;21.238;2023-02-28T05:40:50;101967.31;;;-3.18;61.81
56582;BME280;42463;52.214;21.238;2023-02-28T05:43:15;101966.77;;;-3.16;61.63
56582;BME280;42463;52.214;21.238;2023-02-28T05:45:39;101969.67;;;-3.10;61.98
56582;BME280;42463;52.214;21.238;2023-02-28T05:48:04;101968.88;;;-3.03;62.08
56582;BME280;42463;52.214;21.238;2023-02-28T05:50:29;101974.16;;;-2.94;62.09
56582;BME280;42463;52.214;21.238;2023-02-28T05:52:53;101974.87;;;-2.88;62.09
56582;BME280;42463;52.214;21.238;2023-02-28T05:55:18;101975.87;;;-2.85;61.77
56582;BME280;42463;52.214;21.238;2023-02-28T05:57:44;101980.58;;;-2.84;61.65
56582;BME280;42463;52.214;21.238;2023-02-28T06:00:13;101984.07;;;-2.84;61.50
56582;BME280;42463;52.214;21.238;2023-02-28T06:02:39;101983.93;;;-2.84;61.50
56582;BME280;42463;52.214;21.238;2023-02-28T06:05:04;101990.73;;;-2.83;61.51
56582;BME280;42463;52.214;21.238;2023-02-28T06:07:29;101990.15;;;-2.80;61.59
56582;BME280;42463;52.214;21.238;2023-02-28T06:09:58;101990.95;;;-2.75;61.93
56582;BME280;42463;52.214;21.238;2023-02-28T06:12:33;101994.14;;;-2.63;62.21
56582;BME280;42463;52.214;21.238;2023-02-28T06:14:58;101991.98;;;-2.50;62.02
56582;BME280;42463;52.214;21.238;2023-02-28T06:17:23;101989.07;;;-2.41;61.67
56582;BME280;42463;52.214;21.238;2023-02-28T06:19:47;101987.31;;;-2.33;61.70
56582;BME280;42463;52.214;21.238;2023-02-28T06:22:12;101988.43;;;-2.23;61.55
56582;BME280;42463;52.214;21.238;2023-02-28T06:24:37;101989.61;;;-2.14;61.55
56582;BME280;42463;52.214;21.238;2023-02-28T06:27:03;101990.00;;;-2.04;61.36
56582;BME280;42463;52.214;21.238;2023-02-28T06:29:28;101989.39;;;-1.94;61.27
56582;BME280;42463;52.214;21.238;2023-02-28T06:31:52;101987.44;;;-1.83;61.06
56582;BME280;42463;52.214;21.238;2023-02-28T06:34:17;101986.23;;;-1.72;60.94
56582;BME280;42463;52.214;21.238;2023-02-28T06:36:42;101984.09;;;-1.60;60.83
56582;BME280;42463;52.214;21.238;2023-02-28T06:39:07;101980.92;;;-1.46;60.46
56582;BME280;42463;52.214;21.238;2023-02-28T06:41:32;101980.38;;;-1.35;60.29
56582;BME280;42463;52.214;21.238;2023-02-28T06:44:01;101975.17;;;-1.20;60.47
56582;BME280;42463;52.214;21.238;2023-02-28T06:46:26;101971.43;;;-1.06;60.20
56582;BME280;42463;52.214;21.238;2023-02-28T06:48:51;101961.99;;;-0.92;60.13
56582;BME280;42463;52.214;21.238;2023-02-28T06:51:17;101960.68;;;-0.75;59.90
56582;BME280;42463;52.214;21.238;2023-02-28T06:53:43;101955.00;;;-0.59;59.39
56582;BME280;42463;52.214;21.238;2023-02-28T06:56:09;101956.13;;;-0.47;59.08
56582;BME280;42463;52.214;21.238;2023-02-28T06:58:34;101952.69;;;-0.34;58.98
56582;BME280;42463;52.214;21.238;2023-02-28T07:01:02;101955.30;;;-0.20;58.65
56582;BME280;42463;52.214;21.238;2023-02-28T07:03:27;101950.90;;;-0.05;58.41
56582;BME280;42463;52.214;21.238;2023-02-28T07:05:52;101951.30;;;0.09;58.49
56582;BME280;42463;52.214;21.238;2023-02-28T07:08:16;101948.80;;;0.25;58.32
56582;BME280;42463;52.214;21.238;2023-02-28T07:10:41;101945.08;;;0.40;58.34
56582;BME280;42463;52.214;21.238;2023-02-28T07:13:07;101946.13;;;0.55;58.14
56582;BME280;42463;52.214;21.238;2023-02-28T07:15:32;101950.08;;;0.72;57.84
56582;BME280;42463;52.214;21.238;2023-02-28T07:17:57;101949.34;;;0.92;57.67
56582;BME280;42463;52.214;21.238;2023-02-28T07:20:21;101951.63;;;1.08;57.05
56582;BME280;42463;52.214;21.238;2023-02-28T07:22:46;101948.01;;;1.24;57.08
56582;BME280;42463;52.214;21.238;2023-02-28T07:25:15;101950.38;;;1.43;56.50
56582;BME280;42463;52.214;21.238;2023-02-28T07:27:40;101943.24;;;1.64;56.09
56582;BME280;42463;52.214;21.238;2023-02-28T07:30:06;101944.92;;;1.83;55.44
56582;BME280;42463;52.214;21.238;2023-02-28T07:32:31;101941.73;;;2.03;55.29
56582;BME280;42463;52.214;21.238;2023-02-28T07:34:56;101941.03;;;2.22;54.68
56582;BME280;42463;52.214;21.238;2023-02-28T07:37:21;101940.84;;;2.36;54.39
56582;BME280;42463;52.214;21.238;2023-02-28T07:39:46;101935.02;;;2.40;54.61
56582;BME280;42463;52.214;21.238;2023-02-28T07:42:11;101933.45;;;2.56;53.92
56582;BME280;42463;52.214;21.238;2023-02-28T07:44:36;101937.16;;;2.80;52.18
56582;BME280;42463;52.214;21.238;2023-02-28T07:47:03;101934.22;;;3.00;51.60
56582;BME280;42463;52.214;21.238;2023-02-28T07:49:28;101931.09;;;3.22;51.04
56582;BME280;42463;52.214;21.238;2023-02-28T07:51:53;101935.56;;;3.41;50.43
56582;BME280;42463;52.214;21.238;2023-02-28T07:54:18;101939.55;;;3.59;49.62
56582;BME280;42463;52.214;21.238;2023-02-28T07:56:42;101940.71;;;3.75;48.87
56582;BME280;42463;52.214;21.238;2023-02-28T07:59:07;101941.73;;;3.93;48.23
56582;BME280;42463;52.214;21.238;2023-02-28T08:01:32;101944.11;;;4.08;47.79
56582;BME280;42463;52.214;21.238;2023-02-28T08:03:55;101946.06;;;4.23;47.49
56582;BME280;42463;52.214;21.238;2023-02-28T08:06:22;101945.06;;;4.33;46.77
56582;BME280;42463;52.214;21.238;2023-02-28T08:08:47;101948.73;;;4.44;45.78
56582;BME280;42463;52.214;21.238;2023-02-28T08:11:12;101950.27;;;4.58;45.13
56582;BME280;42463;52.214;21.238;2023-02-28T08:13:37;101951.22;;;4.71;45.10
56582;BME280;42463;52.214;21.238;2023-02-28T08:16:04;101951.06;;;4.80;43.94
56582;BME280;42463;52.214;21.238;2023-02-28T08:18:29;101950.26;;;4.70;43.37
56582;BME280;42463;52.214;21.238;2023-02-28T08:20:54;101948.69;;;4.57;42.78
56582;BME280;42463;52.214;21.238;2023-02-28T08:23:20;101946.86;;;4.44;43.23
56582;BME280;42463;52.214;21.238;2023-02-28T08:25:45;101943.44;;;4.42;43.08
56582;BME280;42463;52.214;21.238;2023-02-28T08:28:10;101938.65;;;4.40;42.93
56582;BME280;42463;52.214;21.238;2023-02-28T08:30:35;101938.75;;;4.39;42.89
56582;BME280;42463;52.214;21.238;2023-02-28T08:32:59;101929.92;;;4.44;43.63
56582;BME280;42463;52.214;21.238;2023-02-28T08:35:26;101938.86;;;4.66;43.85
56582;BME280;42463;52.214;21.238;2023-02-28T08:37:51;101939.01;;;4.78;42.96
56582;BME280;42463;52.214;21.238;2023-02-28T08:40:16;101941.00;;;4.82;42.92
56582;BME280;42463;52.214;21.238;2023-02-28T08:42:42;101941.92;;;4.92;42.69
56582;BME280;42463;52.214;21.238;2023-02-28T08:45:09;101945.36;;;5.04;42.69
56582;BME280;42463;52.214;21.238;2023-02-28T08:47:34;101945.25;;;5.17;42.47
56582;BME280;42463;52.214;21.238;2023-02-28T08:49:59;101949.48;;;5.21;41.28
56582;BME280;42463;52.214;21.238;2023-02-28T08:52:23;101949.98;;;5.07;40.50
56582;BME280;42463;52.214;21.238;2023-02-28T08:54:48;101945.77;;;4.99;41.28
56582;BME280;42463;52.214;21.238;2023-02-28T08:57:12;101944.90;;;4.89;40.48
56582;BME280;42463;52.214;21.238;2023-02-28T08:59:37;101949.42;;;4.88;41.38
56582;BME280;42463;52.214;21.238;2023-02-28T09:02:01;101949.63;;;4.88;42.05
56582;BME280;42463;52.214;21.238;2023-02-28T09:04:26;101948.86;;;4.96;41.72
56582;BME280;42463;52.214;21.238;2023-02-28T09:06:54;101948.30;;;4.94;41.15
56582;BME280;42463;52.214;21.238;2023-02-28T09:09:18;101947.67;;;4.89;41.64
56582;BME280;42463;52.214;21.238;2023-02-28T09:11:43;101948.73;;;4.94;41.81
56582;BME280;42463;52.214;21.238;2023-02-28T09:14:07;101948.42;;;4.92;41.62
56582;BME280;42463;52.214;21.238;2023-02-28T09:16:33;101954.11;;;5.00;41.88
56582;BME280;42463;52.214;21.238;2023-02-28T09:18:58;101954.56;;;5.09;41.36
56582;BME280;42463;52.214;21.238;2023-02-28T09:21:23;101956.20;;;5.06;40.74
56582;BME280;42463;52.214;21.238;2023-02-28T09:23:49;101961.30;;;5.18;41.17
56582;BME280;42463;52.214;21.238;2023-02-28T09:26:18;101958.23;;;5.32;41.09
56582;BME280;42463;52.214;21.238;2023-02-28T09:28:43;101956.60;;;5.48;41.20
56582;BME280;42463;52.214;21.238;2023-02-28T09:31:11;101956.95;;;5.57;40.56
56582;BME280;42463;52.214;21.238;2023-02-28T09:33:36;101958.30;;;5.62;39.63
56582;BME280;42463;52.214;21.238;2023-02-28T09:36:02;101955.30;;;5.53;38.79
56582;BME280;42463;52.214;21.238;2023-02-28T09:38:28;101949.10;;;5.51;39.09
56582;BME280;42463;52.214;21.238;2023-02-28T09:40:55;101949.71;;;5.43;38.95
56582;BME280;42463;52.214;21.238;2023-02-28T09:43:23;101945.58;;;5.37;39.36
56582;BME280;42463;52.214;21.238;2023-02-28T09:45:54;101948.38;;;5.39;39.33
56582;BME280;42463;52.214;21.238;2023-02-28T09:48:23;101951.10;;;5.38;39.42
56582;BME280;42463;52.214;21.238;2023-02-28T09:50:50;101949.33;;;5.38;39.44
56582;BME280;42463;52.214;21.238;2023-02-28T09:53:21;101949.76;;;5.24;39.66
56582;BME280;42463;52.214;21.238;2023-02-28T09:55:50;101953.70;;;5.07;39.50
56582;BME280;42463;52.214;21.238;2023-02-28T09:58:20;101949.68;;;5.07;40.02
56582;BME280;42463;52.214;21.238;2023-02-28T10:00:54;101951.39;;;5.12;40.51
56582;BME280;42463;52.214;21.238;2023-02-28T10:03:31;101955.91;;;5.10;39.47
56582;BME280;42463;52.214;21.238;2023-02-28T10:06:02;101957.15;;;5.13;40.48
56582;BME280;42463;52.214;21.238;2023-02-28T10:08:31;101955.40;;;5.25;40.75
56582;BME280;42463;52.214;21.238;2023-02-28T10:11:00;101955.36;;;5.37;40.71
56582;BME280;42463;52.214;21.238;2023-02-28T10:13:31;101953.48;;;5.43;39.98
56582;BME280;42463;52.214;21.238;2023-02-28T10:15:59;101947.31;;;5.31;39.71
56582;BME280;42463;52.214;21.238;2023-02-28T10:18:29;101948.23;;;5.15;39.31
56582;BME280;42463;52.214;21.238;2023-02-28T10:20:56;101954.25;;;5.08;39.58
56582;BME280;42463;52.214;21.238;2023-02-28T10:23:23;101950.02;;;5.10;40.02
56582;BME280;42463;52.214;21.238;2023-02-28T10:25:55;101945.75;;;5.25;40.32
56582;BME280;42463;52.214;21.238;2023-02-28T10:28:24;101949.62;;;5.47;40.74
56582;BME280;42463;52.214;21.238;2023-02-28T10:30:51;101945.65;;;5.63;39.87
56582;BME280;42463;52.214;21.238;2023-02-28T10:33:24;101945.63;;;5.71;39.83
56582;BME280;42463;52.214;21.238;2023-02-28T10:35:50;101944.89;;;5.90;39.98
56582;BME280;42463;52.214;21.238;2023-02-28T10:38:19;101941.77;;;6.00;39.04
56582;BME280;42463;52.214;21.238;2023-02-28T10:40:44;101942.37;;;6.05;39.03
56582;BME280;42463;52.214;21.238;2023-02-28T10:43:21;101942.04;;;6.02;38.69
56582;BME280;42463;52.214;21.238;2023-02-28T10:45:58;101941.60;;;6.10;39.52
56582;BME280;42463;52.214;21.238;2023-02-28T10:48:32;101937.55;;;6.31;39.21
56582;BME280;42463;52.214;21.238;2023-02-28T10:50:57;101934.16;;;6.47;38.34
56582;BME280;42463;52.214;21.238;2023-02-28T10:53:31;101932.47;;;6.63;38.31
56582;BME280;42463;52.214;21.238;2023-02-28T10:56:02;101930.41;;;6.72;38.85
56582;BME280;42463;52.214;21.238;2023-02-28T10:58:29;101929.52;;;6.92;38.19
56582;BME280;42463;52.214;21.238;2023-02-28T11:01:10;101930.67;;;6.94;37.62
56582;BME280;42463;52.214;21.238;2023-02-28T11:03:36;101926.98;;;7.10;37.56
56582;BME280;42463;52.214;21.238;2023-02-28T11:06:06;101922.16;;;7.27;37.89
56582;BME280;42463;52.214;21.238;2023-02-28T11:08:32;101916.53;;;7.38;37.11
56582;BME280;42463;52.214;21.238;2023-02-28T11:11:00;101918.15;;;7.38;35.89
56582;BME280;42463;52.214;21.238;2023-02-28T11:13:30;101912.92;;;7.33;36.32
56582;BME280;42463;52.214;21.238;2023-02-28T11:15:58;101907.81;;;7.38;36.35
56582;BME280;42463;52.214;21.238;2023-02-28T11:18:28;101904.81;;;7.44;36.23
56582;BME280;42463;52.214;21.238;2023-02-28T11:20:55;101897.77;;;7.47;36.70
56582;BME280;42463;52.214;21.238;2023-02-28T11:23:26;101893.75;;;7.69;36.35
56582;BME280;42463;52.214;21.238;2023-02-28T11:25:54;101891.48;;;7.94;36.20
56582;BME280;42463;52.214;21.238;2023-02-28T11:28:29;101884.56;;;8.12;36.07
56582;BME280;42463;52.214;21.238;2023-02-28T11:31:04;101888.41;;;8.17;35.34
56582;BME280;42463;52.214;21.238;2023-02-28T11:33:30;101883.73;;;8.29;36.13
56582;BME280;42463;52.214;21.238;2023-02-28T11:36:00;101882.59;;;8.40;34.82
56582;BME280;42463;52.214;21.238;2023-02-28T11:38:25;101876.73;;;8.45;34.88
56582;BME280;42463;52.214;21.238;2023-02-28T11:41:02;101865.88;;;8.48;34.20
56582;BME280;42463;52.214;21.238;2023-02-28T11:43:37;101872.70;;;8.43;33.69
56582;BME280;42463;52.214;21.238;2023-02-28T11:46:20;101863.98;;;8.53;34.76
56582;BME280;42463;52.214;21.238;2023-02-28T11:48:49;101864.63;;;8.71;34.33
56582;BME280;42463;52.214;21.238;2023-02-28T11:51:23;101859.35;;;8.94;34.77
56582;BME280;42463;52.214;21.238;2023-02-28T11:54:08;101861.38;;;9.17;33.41
56582;BME280;42463;52.214;21.238;2023-02-28T11:56:43;101854.19;;;9.09;32.75
56582;BME280;42463;52.214;21.238;2023-02-28T11:59:26;101852.48;;;9.11;33.72
56582;BME280;42463;52.214;21.238;2023-02-28T12:02:05;101853.41;;;9.28;33.91
56582;BME280;42463;52.214;21.238;2023-02-28T12:04:44;101840.23;;;9.49;33.91
56582;BME280;42463;52.214;21.238;2023-02-28T12:07:18;101847.52;;;9.75;33.53
56582;BME280;42463;52.214;21.238;2023-02-28T12:09:53;101841.04;;;9.94;32.87
56582;BME280;42463;52.214;21.238;2023-02-28T12:12:33;101838.40;;;10.03;33.32
56582;BME280;42463;52.214;21.238;2023-02-28T12:15:13;101836.56;;;10.25;32.78
56582;BME280;42463;52.214;21.238;2023-02-28T12:17:50;101838.16;;;10.38;31.43
56582;BME280;42463;52.214;21.238;2023-02-28T12:20:28;101829.45;;;10.40;31.33
56582;BME280;42463;52.214;21.238;2023-02-28T12:23:08;101833.14;;;10.50;31.86
56582;BME280;42463;52.214;21.238;2023-02-28T12:25:45;101830.75;;;10.63;31.85
56582;BME280;42463;52.214;21.238;2023-02-28T12:28:16;101823.67;;;10.83;30.97
56582;BME280;42463;52.214;21.238;2023-02-28T12:30:49;101821.63;;;10.96;30.91
56582;BME280;42463;52.214;21.238;2023-02-28T12:33:16;101818.36;;;11.14;31.09
56582;BME280;42463;52.214;21.238;2023-02-28T12:35:48;101817.75;;;11.17;30.49
56582;BME280;42463;52.214;21.238;2023-02-28T12:38:18;101814.42;;;11.12;30.44
56582;BME280;42463;52.214;21.238;2023-02-28T12:40:47;101813.48;;;11.14;30.47
56582;BME280;42463;52.214;21.238;2023-02-28T12:43:14;101809.77;;;10.97;29.31
56582;BME280;42463;52.214;21.238;2023-02-28T12:45:46;101809.95;;;10.79;30.27
56582;BME280;42463;52.214;21.238;2023-02-28T12:48:19;101805.29;;;10.87;30.68
56582;BME280;42463;52.214;21.238;2023-02-28T12:50:46;101807.77;;;10.99;30.33